Startline

Run For Women

Calgary, AB - June 12, 2022

Event Website
Event Place Time Name Division Place/Gender Place/Division
Virtual Run 1/65 0:29:08 CROSS, Rebecca F-OPEN 1/60 1/60
Virtual Run 2/65 0:31:07 TRAVERSE, Sarah F-OPEN 2/60 2/60
Virtual Run 3/65 0:31:19 FREUND, Jennifer F-OPEN 3/60 3/60
Virtual Run 4/65 0:37:42 SOWIAK, Christine F-OPEN 4/60 4/60
Virtual Run 5/65 0:38:42 BURTON, Adriana F-OPEN 5/60 5/60
Virtual Run 6/65 0:39:30 LOMAS, Jennifer F-OPEN 6/60 6/60
Virtual Run 7/65 0:40:00 BARTSCH, Terresa F-OPEN 7/60 7/60
Virtual Run 8/65 0:40:34 KYLLO-NICHOLS, Rebecca F-OPEN 8/60 8/60
Virtual Run 9/65 0:41:46 HIPKIN, Jody F-OPEN 9/60 9/60
Virtual Run 10/65 0:42:37 KLAUDT, Michelle F-OPEN 10/60 10/60
Virtual Run 11/65 0:43:16 WICKES, Sandra F-OPEN 11/60 11/60
Virtual Run 12/65 0:44:03 WATSON, Carlie F-OPEN 12/60 12/60
Virtual Run 13/65 0:45:29 FORSYTH, Monica F-OPEN 13/60 13/60
Virtual Run 14/65 0:46:53 FURLONG, Sarah F-OPEN 14/60 14/60
Virtual Run 15/65 0:47:13 GOWAN, Jessi F-OPEN 15/60 15/60
Virtual Run 16/65 0:47:28 GRAHAM, Rae F-OPEN 16/60 16/60
Virtual Run 17/65 0:50:42 HANSON, Stephanie F-OPEN 17/60 17/60
Virtual Run 18/65 0:50:59 STEVENS, Leigh F-OPEN 18/60 18/60
Virtual Run 19/65 0:52:00 GRIFFITH, Rhiannon F-OPEN 19/60 19/60
Virtual Run 20/65 0:52:23 CARTER, Michelle F-OPEN 20/60 20/60
Virtual Run 21/65 0:53:07 BENNETT, Val F-OPEN 21/60 21/60
Virtual Run 22/65 0:54:29 MISKULIN, Jonathan M-OPEN 1/5 1/5
Virtual Run 23/65 0:55:11 YEE, Shannon F-OPEN 23/60 23/60
Virtual Run 24/65 0:55:11 VENESS, Monica F-OPEN 22/60 22/60
Virtual Run 25/65 0:55:15 HAMILTON, Donna F-OPEN 24/60 24/60
Virtual Run 26/65 0:56:00 HUNTLEY, Susan F-OPEN 25/60 25/60
Virtual Run 27/65 0:56:55 BACON, Sherree F-OPEN 26/60 26/60
Virtual Run 28/65 0:59:00 MADDEN, Megan F-OPEN 27/60 27/60
Virtual Run 29/65 1:00:00 BECKETT, Erin F-OPEN 28/60 28/60
Virtual Run 30/65 1:01:00 ROBAR, Leeanne F-OPEN 29/60 29/60
Virtual Run 31/65 1:01:42 ROEDLER, Rhonda F-OPEN 30/60 30/60
Virtual Run 32/65 1:04:06 GERRARD, Brigitte F-OPEN 31/60 31/60
Virtual Run 33/65 1:04:44 HILLIER, Karen F-OPEN 32/60 32/60
Virtual Run 34/65 1:05:58 HOFFART, Tricia F-OPEN 34/60 34/60
Virtual Run 35/65 1:05:58 HOFFART, Jillian F-OPEN 33/60 33/60
Virtual Run 36/65 1:06:00 PEDERSEN, Christine F-OPEN 36/60 36/60
Virtual Run 37/65 1:06:00 LEUNG, Janet F-OPEN 35/60 35/60
Virtual Run 38/65 1:06:50 KERSLAKE, Angelika F-OPEN 37/60 37/60
Virtual Run 39/65 1:08:08 TEMPERLI, Zsuzsanna F-OPEN 38/60 38/60
Virtual Run 40/65 1:08:29 SMITH, Susan F-OPEN 39/60 39/60
Virtual Run 41/65 1:09:37 PATEL-SCHUETT, Milan F-OPEN 40/60 40/60
Virtual Run 42/65 1:10:34 OBRIEN, Cheryl F-OPEN 41/60 41/60
Virtual Run 43/65 1:12:46 DONSKY, Michele F-OPEN 42/60 42/60
Virtual Run 44/65 1:15:00 SISON, Kristine F-OPEN 45/60 45/60
Virtual Run 45/65 1:15:00 CARRUTHERS, Wendy F-OPEN 44/60 44/60
Virtual Run 46/65 1:15:00 AKINOKUN, Rosaline F-OPEN 43/60 43/60
Virtual Run 47/65 1:16:01 YETMAN, Mandy F-OPEN 46/60 46/60
Virtual Run 48/65 1:16:15 FONG, Kenton M-OPEN 2/5 2/5
Virtual Run 49/65 1:17:00 RIES, Denise F-OPEN 48/60 48/60
Virtual Run 50/65 1:17:00 HIPKIN, Bree F-OPEN 47/60 47/60
Virtual Run 51/65 1:19:03 WONG, Rachelle F-OPEN 49/60 49/60
Virtual Run 52/65 1:19:08 SARRO, Anna F-OPEN 50/60 50/60
Virtual Run 53/65 1:21:35 TERLETSKI, Robyn F-OPEN 51/60 51/60
Virtual Run 54/65 1:21:38 PATTERSON, Julie F-OPEN 52/60 52/60
Virtual Run 55/65 1:24:06 PARKS, Sarita F-OPEN 53/60 53/60
Virtual Run 56/65 1:28:00 LECKIE, Tracy F-OPEN 54/60 54/60
Virtual Run 57/65 1:35:10 FENTIE, Harmony F-OPEN 55/60 55/60
Virtual Run 58/65 1:44:10 KASINSKI, Jack M-OPEN 3/5 3/5
Virtual Run 59/65 1:45:00 YOSHIDA, Fran F-OPEN 56/60 56/60
Virtual Run 60/65 1:46:01 JONES, Sandee F-OPEN 57/60 57/60
Virtual Run 61/65 1:46:19 ELLIOTT, Judith F-OPEN 58/60 58/60
Virtual Run 62/65 2:20:13 BECKETT, Sean M-OPEN 4/5 4/5
Virtual Run 63/65 3:00:00 SMITH, Hilda F-OPEN 59/60 59/60
Virtual Run 64/65 3:05:00 JACOBS, Bayla F-OPEN 60/60 60/60
Virtual Run 65/65 7:09:48 DETKA, Joel M-OPEN 5/5 5/5